Cacequi, Brazil
Current Conditions -  °F | °C
As of 7:00 PM on Thursday 27 Nov 2014 (Local Time) from SBSM Reporting Station
Scattered Clouds Scattered Clouds  
Wind Chill: 81°   Ceiling: Unl
Heat Index: 82°   Visibility: 6mi
Dew Point: 63°   Wind: 12mph
Humidity: 54%   Direction: 110°ESE
Pressure: 29.88"   Gusts: NA
Location:  29.88°S, 54.82°W
Report Text: SBSM 272100Z 11010KT 9999 SCT043 27/17 Q1012
Loading
Personal Weather Stations






























Interactive Weather Map New forecast layout! Learn more

10-Day Weather Forecast

Advertisements
Track Severe Weather on mobile